createdAt,value
2023-01-13T00:01:13.564Z,27.70
2023-01-13T00:04:16.027Z,27.15
2023-01-13T00:07:18.469Z,29.48
2023-01-13T00:10:21.405Z,28.03
2023-01-13T00:13:26.897Z,30.00
2023-01-13T00:16:29.256Z,28.15
2023-01-13T00:19:31.695Z,28.13
2023-01-13T00:22:35.392Z,29.05
2023-01-13T00:25:37.730Z,31.65
2023-01-13T00:28:40.547Z,27.63
2023-01-13T00:31:42.921Z,28.00
2023-01-13T00:34:45.315Z,29.33
2023-01-13T00:37:47.696Z,28.15
2023-01-13T00:40:57.759Z,29.60
2023-01-13T00:44:00.134Z,26.88
2023-01-13T00:47:02.752Z,27.05
2023-01-13T00:50:06.369Z,26.45
2023-01-13T00:53:08.758Z,26.50
2023-01-13T00:56:30.529Z,26.08
2023-01-13T00:59:41.010Z,26.98
2023-01-13T01:02:43.502Z,26.17
2023-01-13T01:05:46.072Z,24.75
2023-01-13T01:08:48.918Z,25.92
2023-01-13T01:11:51.667Z,25.15
2023-01-13T01:14:54.146Z,25.13
2023-01-13T01:17:56.521Z,25.73
2023-01-13T01:21:02.802Z,25.35
2023-01-13T01:24:05.930Z,22.55
2023-01-13T01:27:08.375Z,25.33
2023-01-13T01:30:11.683Z,24.92
2023-01-13T01:33:14.130Z,26.00
2023-01-13T01:36:19.263Z,25.03
2023-01-13T01:39:22.626Z,24.65
2023-01-13T01:42:43.431Z,25.77
2023-01-13T01:45:45.867Z,26.00
2023-01-13T01:48:48.799Z,24.60
2023-01-13T01:52:02.798Z,24.95
2023-01-13T01:55:08.747Z,25.33
2023-01-13T01:58:12.865Z,24.80
2023-01-13T02:01:16.296Z,24.70
2023-01-13T02:04:25.047Z,25.58
2023-01-13T02:07:30.600Z,24.87
2023-01-13T02:10:33.726Z,23.15
2023-01-13T02:13:36.220Z,23.88
2023-01-13T02:16:47.954Z,23.58
2023-01-13T02:20:27.806Z,22.27
2023-01-13T02:23:58.300Z,21.63
2023-01-13T02:27:16.690Z,23.08
2023-01-13T02:30:59.153Z,21.38
2023-01-13T02:34:25.477Z,21.10
2023-01-13T02:37:31.734Z,22.92
2023-01-13T02:40:59.242Z,21.67
2023-01-13T02:44:07.240Z,20.87
2023-01-13T02:47:22.864Z,21.50
2023-01-13T02:50:31.389Z,21.13
2023-01-13T02:53:57.474Z,21.88
2023-01-13T02:57:01.192Z,22.00
2023-01-13T03:00:07.220Z,21.05
2023-01-13T03:03:09.735Z,22.40
2023-01-13T03:06:51.713Z,22.70
2023-01-13T03:10:08.225Z,21.03
2023-01-13T03:13:56.037Z,21.55
2023-01-13T03:17:13.199Z,19.33
2023-01-13T03:20:26.441Z,20.38
2023-01-13T03:23:37.459Z,20.47
2023-01-13T03:26:43.292Z,20.83
2023-01-13T03:30:09.453Z,20.13
2023-01-13T03:33:17.129Z,19.37
2023-01-13T03:36:25.718Z,20.23
2023-01-13T03:39:34.326Z,20.17
2023-01-13T03:42:40.808Z,19.88
2023-01-13T03:45:47.414Z,19.67
2023-01-13T03:48:56.382Z,19.83
2023-01-13T03:52:05.013Z,19.83
2023-01-13T03:55:15.320Z,19.85
2023-01-13T03:58:23.461Z,19.43
2023-01-13T04:01:34.659Z,21.70
2023-01-13T04:04:59.375Z,20.25
2023-01-13T04:08:15.018Z,20.10
2023-01-13T04:11:35.811Z,19.03
2023-01-13T04:14:39.196Z,20.30
2023-01-13T04:17:42.120Z,19.40
2023-01-13T04:20:47.957Z,19.20
2023-01-13T04:23:51.520Z,18.80
2023-01-13T04:26:54.025Z,18.52
2023-01-13T04:29:56.501Z,18.80
2023-01-13T04:32:59.437Z,18.87
2023-01-13T04:36:01.940Z,17.85
2023-01-13T04:39:04.554Z,18.05
2023-01-13T04:42:06.908Z,19.17
2023-01-13T04:45:09.891Z,19.08
2023-01-13T04:48:12.861Z,19.55
2023-01-13T04:51:15.302Z,19.10
2023-01-13T04:54:17.760Z,18.80
2023-01-13T04:57:20.185Z,17.95
2023-01-13T05:00:23.712Z,17.60
2023-01-13T05:03:26.861Z,18.25
2023-01-13T05:06:30.151Z,18.27
2023-01-13T05:09:32.869Z,18.17
2023-01-13T05:12:53.656Z,18.17
2023-01-13T05:16:24.850Z,18.52
2023-01-13T05:19:29.117Z,18.17
2023-01-13T05:22:50.328Z,18.55
2023-01-13T05:25:52.830Z,19.77
2023-01-13T05:28:55.464Z,19.20
2023-01-13T05:31:58.115Z,18.60
2023-01-13T05:35:00.826Z,18.35
2023-01-13T05:38:03.296Z,18.73
2023-01-13T05:41:24.727Z,18.98
2023-01-13T05:44:27.250Z,18.57
2023-01-13T05:47:29.720Z,18.83
2023-01-13T05:50:32.410Z,17.58
2023-01-13T05:53:43.464Z,17.98
2023-01-13T05:56:45.900Z,18.05
2023-01-13T05:59:48.414Z,17.30
2023-01-13T06:02:51.624Z,17.85
2023-01-13T06:05:58.772Z,18.10
2023-01-13T06:09:01.279Z,17.60
2023-01-13T06:12:04.544Z,17.33
2023-01-13T06:15:07.479Z,16.75
2023-01-13T06:18:10.378Z,17.95
2023-01-13T06:21:13.081Z,18.02
2023-01-13T06:24:15.738Z,17.83
2023-01-13T06:27:18.490Z,18.17
2023-01-13T06:30:21.078Z,16.80
2023-01-13T06:33:30.234Z,17.88
2023-01-13T06:36:41.914Z,17.52
2023-01-13T06:39:44.674Z,18.93
2023-01-13T06:43:26.060Z,19.77
2023-01-13T06:46:29.092Z,20.33
2023-01-13T06:49:31.979Z,20.33
2023-01-13T06:52:34.420Z,17.53
2023-01-13T06:55:37.336Z,18.60
2023-01-13T06:58:39.959Z,17.58
2023-01-13T07:01:42.594Z,18.73
2023-01-13T07:04:46.737Z,17.17
2023-01-13T07:07:49.301Z,17.35
2023-01-13T07:10:52.962Z,16.08
2023-01-13T07:14:17.687Z,18.03
2023-01-13T07:17:25.363Z,16.95
2023-01-13T07:20:30.933Z,15.65
2023-01-13T07:23:36.379Z,16.93
2023-01-13T07:26:38.863Z,15.02
2023-01-13T07:29:41.624Z,15.38
2023-01-13T07:32:44.197Z,15.02
2023-01-13T07:35:47.541Z,14.67
2023-01-13T07:38:50.103Z,14.38
2023-01-13T07:42:11.299Z,13.88
2023-01-13T07:45:15.117Z,13.02
2023-01-13T07:48:17.631Z,12.93
2023-01-13T07:51:20.354Z,12.07
2023-01-13T07:54:35.223Z,12.63
2023-01-13T07:57:42.507Z,11.87
2023-01-13T08:00:48.628Z,13.47
2023-01-13T08:03:51.185Z,11.52
2023-01-13T08:06:53.650Z,11.88
2023-01-13T08:09:56.263Z,11.27
2023-01-13T08:13:17.222Z,11.52
2023-01-13T08:16:19.732Z,11.10
2023-01-13T08:19:22.620Z,11.98
2023-01-13T08:22:25.807Z,12.00
2023-01-13T08:25:29.746Z,11.73
2023-01-13T08:28:33.166Z,11.43
2023-01-13T08:31:35.957Z,11.57
2023-01-13T08:34:38.579Z,12.40
2023-01-13T08:37:41.559Z,10.85
2023-01-13T08:40:44.015Z,11.52
2023-01-13T08:43:46.484Z,9.35
2023-01-13T08:46:49.385Z,11.40
2023-01-13T08:49:51.837Z,10.88
2023-01-13T08:52:54.387Z,10.25
2023-01-13T08:55:56.950Z,10.73
2023-01-13T08:59:00.255Z,11.60
2023-01-13T09:02:04.306Z,11.13
2023-01-13T09:05:08.155Z,10.40
2023-01-13T09:08:10.806Z,11.33
2023-01-13T09:11:37.362Z,11.02
2023-01-13T09:14:40.510Z,10.90
2023-01-13T09:17:43.031Z,11.75
2023-01-13T09:20:46.131Z,10.67
2023-01-13T09:23:48.655Z,12.45
2023-01-13T09:26:51.265Z,11.15
2023-01-13T09:29:53.733Z,11.30
2023-01-13T09:33:18.528Z,9.75
2023-01-13T09:36:21.253Z,10.35
2023-01-13T09:39:23.705Z,11.65
2023-01-13T09:43:33.229Z,11.90
2023-01-13T09:46:51.493Z,10.48
2023-01-13T09:49:58.626Z,10.23
2023-01-13T09:53:01.445Z,10.05
2023-01-13T09:56:05.112Z,10.67
2023-01-13T09:59:12.117Z,10.45
2023-01-13T10:02:40.051Z,10.45
2023-01-13T10:06:31.198Z,10.73
2023-01-13T10:09:51.979Z,11.25
2023-01-13T10:13:13.394Z,11.07
2023-01-13T10:16:30.991Z,11.30
2023-01-13T10:19:59.557Z,11.43
2023-01-13T10:23:26.647Z,10.68
2023-01-13T10:26:44.731Z,10.73
2023-01-13T10:29:47.220Z,11.00
2023-01-13T10:32:56.525Z,8.95
2023-01-13T10:35:59.559Z,11.30
2023-01-13T10:39:16.949Z,10.13
2023-01-13T10:42:22.957Z,11.52
2023-01-13T10:45:25.988Z,10.57
2023-01-13T10:48:58.419Z,10.53
2023-01-13T10:52:02.339Z,10.30
2023-01-13T10:55:25.783Z,10.38
2023-01-13T10:58:28.624Z,12.10
2023-01-13T11:01:34.141Z,12.38
2023-01-13T11:04:39.057Z,11.48
2023-01-13T11:07:58.025Z,13.60
2023-01-13T11:11:00.838Z,11.20
2023-01-13T11:14:26.934Z,11.93
2023-01-13T11:18:01.438Z,11.13
2023-01-13T11:21:09.462Z,11.43
2023-01-13T11:24:37.462Z,13.90
2023-01-13T11:27:59.521Z,13.17
2023-01-13T11:31:11.092Z,13.07
2023-01-13T11:34:36.987Z,13.07
2023-01-13T11:37:45.088Z,11.73
2023-01-13T11:40:50.927Z,12.05
2023-01-13T11:44:25.564Z,12.10
2023-01-13T11:47:28.443Z,12.52
2023-01-13T11:50:54.071Z,11.67
2023-01-13T11:54:08.863Z,12.55
2023-01-13T11:57:35.700Z,12.77
2023-01-13T12:00:56.258Z,10.70
2023-01-13T12:04:26.177Z,12.03
2023-01-13T12:07:36.967Z,12.15
2023-01-13T12:10:47.330Z,12.07
2023-01-13T12:14:15.978Z,11.60
2023-01-13T12:17:47.581Z,12.80
2023-01-13T12:21:07.195Z,12.25
2023-01-13T12:24:46.479Z,11.95
2023-01-13T12:28:14.220Z,13.10
2023-01-13T12:31:19.481Z,12.37
2023-01-13T12:34:39.106Z,13.30
2023-01-13T12:38:23.571Z,12.88
2023-01-13T12:42:04.250Z,12.20
2023-01-13T12:45:12.937Z,13.80
2023-01-13T12:48:57.043Z,14.68
2023-01-13T12:52:09.672Z,14.05
2023-01-13T12:55:16.854Z,14.40
2023-01-13T12:58:28.207Z,13.68
2023-01-13T13:01:35.882Z,15.00
2023-01-13T13:04:51.865Z,14.60
2023-01-13T13:08:06.882Z,13.73
2023-01-13T13:11:42.108Z,14.60
2023-01-13T13:14:47.337Z,14.07
2023-01-13T13:17:58.907Z,14.95
2023-01-13T13:21:09.572Z,14.40
2023-01-13T13:24:12.106Z,14.15
2023-01-13T13:27:18.889Z,14.18
2023-01-13T13:30:34.796Z,14.70
2023-01-13T13:34:09.635Z,14.90
2023-01-13T13:37:27.638Z,14.80
2023-01-13T13:41:02.937Z,14.63
2023-01-13T13:44:36.064Z,14.90
2023-01-13T13:47:39.722Z,14.80
2023-01-13T13:50:48.442Z,14.35
2023-01-13T13:53:51.341Z,15.90
2023-01-13T13:56:54.059Z,15.90
2023-01-13T13:59:59.088Z,16.07
2023-01-13T14:03:19.410Z,16.27
2023-01-13T14:06:24.314Z,14.73
2023-01-13T14:09:28.836Z,16.70
2023-01-13T14:12:38.471Z,15.17
2023-01-13T14:15:41.336Z,18.75
2023-01-13T14:18:48.811Z,17.88
2023-01-13T14:21:51.447Z,18.10
2023-01-13T14:24:58.065Z,16.50
2023-01-13T14:28:18.681Z,16.45
2023-01-13T14:31:22.440Z,15.50
2023-01-13T14:34:32.839Z,16.20
2023-01-13T14:37:39.022Z,14.88
2023-01-13T14:40:45.763Z,15.65
2023-01-13T14:43:50.652Z,14.82
2023-01-13T14:46:56.560Z,15.17
2023-01-13T14:50:23.511Z,15.43
2023-01-13T14:53:39.578Z,16.30
2023-01-13T14:56:53.916Z,16.15
2023-01-13T14:59:59.140Z,14.67
2023-01-13T15:03:08.028Z,13.60
2023-01-13T15:06:25.735Z,14.65
2023-01-13T15:09:41.570Z,14.38
2023-01-13T15:12:44.218Z,15.13
2023-01-13T15:15:51.578Z,13.57
2023-01-13T15:18:56.078Z,14.27
2023-01-13T15:21:58.540Z,13.90
2023-01-13T15:25:00.952Z,13.50
2023-01-13T15:28:04.983Z,14.67
2023-01-13T15:31:07.476Z,15.48
2023-01-13T15:34:10.021Z,14.25
2023-01-13T15:37:13.620Z,15.17
2023-01-13T15:40:20.290Z,14.23
2023-01-13T15:43:42.629Z,14.48
2023-01-13T15:46:45.295Z,14.75
2023-01-13T15:49:47.917Z,15.50
2023-01-13T15:52:50.484Z,15.40
2023-01-13T15:55:56.611Z,16.35
2023-01-13T15:58:59.172Z,16.38
2023-01-13T16:02:01.734Z,17.55
2023-01-13T16:05:05.471Z,17.13
2023-01-13T16:08:18.983Z,16.58
2023-01-13T16:11:21.549Z,16.38
2023-01-13T16:14:24.005Z,16.88
2023-01-13T16:17:30.001Z,17.10
2023-01-13T16:20:34.008Z,15.95
2023-01-13T16:23:36.438Z,15.85
2023-01-13T16:26:38.996Z,14.50
2023-01-13T16:29:42.558Z,14.77
2023-01-13T16:32:45.027Z,15.10
2023-01-13T16:36:10.340Z,15.50
2023-01-13T16:39:21.033Z,14.33
2023-01-13T16:42:23.657Z,15.50
2023-01-13T16:45:27.079Z,14.88
2023-01-13T16:48:29.598Z,15.05
2023-01-13T16:51:33.299Z,14.97
2023-01-13T16:54:35.928Z,15.00
2023-01-13T16:57:38.329Z,14.45
2023-01-13T17:00:41.474Z,14.52
2023-01-13T17:03:44.560Z,16.57
2023-01-13T17:06:58.442Z,15.63
2023-01-13T17:10:01.170Z,14.85
2023-01-13T17:13:14.817Z,15.43
2023-01-13T17:16:24.337Z,16.08
2023-01-13T17:19:27.064Z,16.70
2023-01-13T17:22:30.844Z,16.63
2023-01-13T17:25:33.352Z,16.83
2023-01-13T17:28:35.886Z,15.70
2023-01-13T17:31:39.038Z,15.37
2023-01-13T17:34:41.665Z,15.10
2023-01-13T17:37:44.232Z,15.80
2023-01-13T17:40:47.063Z,16.80
2023-01-13T17:43:49.712Z,17.37
2023-01-13T17:46:52.175Z,16.85
2023-01-13T17:49:55.358Z,17.60
2023-01-13T17:52:57.981Z,17.75
2023-01-13T17:56:00.418Z,16.90
2023-01-13T17:59:02.879Z,16.67
2023-01-13T18:02:05.765Z,18.73
2023-01-13T18:05:08.923Z,18.02
2023-01-13T18:08:11.538Z,18.73
2023-01-13T18:11:15.739Z,17.38
2023-01-13T18:14:23.010Z,19.02
2023-01-13T18:17:25.679Z,19.15
2023-01-13T18:20:48.858Z,19.50
2023-01-13T18:24:09.895Z,19.95
2023-01-13T18:27:22.633Z,20.10
2023-01-13T18:30:28.037Z,21.05
2023-01-13T18:33:30.839Z,20.40
2023-01-13T18:36:33.349Z,21.38
2023-01-13T18:39:37.474Z,21.30
2023-01-13T18:42:54.315Z,21.35
2023-01-13T18:45:57.165Z,24.87
2023-01-13T18:48:59.750Z,22.23
2023-01-13T18:52:02.232Z,23.02
2023-01-13T18:55:05.206Z,22.83
2023-01-13T18:58:08.115Z,27.43
2023-01-13T19:01:10.955Z,26.97
2023-01-13T19:04:15.899Z,24.00
2023-01-13T19:07:23.677Z,22.90
2023-01-13T19:10:31.721Z,20.77
2023-01-13T19:13:37.594Z,19.93
2023-01-13T19:16:40.262Z,22.65
2023-01-13T19:19:48.393Z,22.75
2023-01-13T19:22:54.353Z,24.35
2023-01-13T19:26:06.694Z,26.43
2023-01-13T19:29:09.611Z,24.70
2023-01-13T19:32:13.388Z,22.35
2023-01-13T19:35:18.086Z,21.60
2023-01-13T19:38:21.554Z,17.93
2023-01-13T19:41:43.291Z,16.67
2023-01-13T19:45:04.566Z,15.88
2023-01-13T19:48:08.480Z,16.03
2023-01-13T19:51:14.356Z,15.13
2023-01-13T19:54:17.056Z,16.55
2023-01-13T19:57:20.823Z,14.18
2023-01-13T20:00:25.291Z,13.97
2023-01-13T20:03:31.444Z,15.43
2023-01-13T20:06:34.012Z,14.20
2023-01-13T20:09:36.828Z,15.52
2023-01-13T20:12:39.480Z,15.00
2023-01-13T20:15:42.424Z,15.40
2023-01-13T20:18:49.127Z,16.00
2023-01-13T20:21:51.937Z,16.42
2023-01-13T20:24:55.382Z,17.43
2023-01-13T20:27:58.779Z,17.83
2023-01-13T20:31:04.710Z,18.90
2023-01-13T20:34:07.358Z,18.77
2023-01-13T20:37:09.980Z,19.47
2023-01-13T20:40:15.723Z,16.93
2023-01-13T20:43:18.432Z,17.05
2023-01-13T20:46:22.846Z,17.83
2023-01-13T20:49:27.791Z,18.08
2023-01-13T20:52:30.718Z,17.53
2023-01-13T20:55:33.467Z,17.50
2023-01-13T20:58:38.164Z,17.85
2023-01-13T21:01:40.986Z,18.23
2023-01-13T21:04:43.726Z,18.00
2023-01-13T21:07:46.190Z,17.95
2023-01-13T21:10:49.142Z,17.23
2023-01-13T21:14:10.228Z,17.67
2023-01-13T21:17:33.921Z,18.93
2023-01-13T21:20:39.113Z,18.67
2023-01-13T21:23:43.231Z,18.65
2023-01-13T21:26:45.806Z,17.83
2023-01-13T21:29:48.527Z,18.53
2023-01-13T21:32:51.446Z,17.23
2023-01-13T21:35:53.989Z,18.02
2023-01-13T21:38:59.992Z,19.83
2023-01-13T21:42:21.219Z,21.07
2023-01-13T21:45:42.333Z,21.05
2023-01-13T21:48:44.878Z,20.48
2023-01-13T21:51:47.424Z,19.80
2023-01-13T21:55:08.143Z,21.10
2023-01-13T21:58:13.843Z,21.35
2023-01-13T22:01:16.472Z,21.02
2023-01-13T22:04:22.268Z,22.05
2023-01-13T22:07:27.566Z,22.73
2023-01-13T22:10:32.307Z,22.98
2023-01-13T22:13:53.204Z,23.33
2023-01-13T22:17:00.513Z,21.02
2023-01-13T22:20:03.963Z,20.93
2023-01-13T22:23:06.507Z,20.67
2023-01-13T22:26:09.221Z,21.42
2023-01-13T22:29:11.625Z,22.05
2023-01-13T22:32:15.993Z,22.13
2023-01-13T22:35:19.077Z,21.40
2023-01-13T22:38:21.846Z,21.83
2023-01-13T22:41:24.584Z,23.70
2023-01-13T22:44:27.575Z,24.33
2023-01-13T22:47:31.379Z,23.30
2023-01-13T22:50:34.266Z,21.60
2023-01-13T22:53:37.751Z,22.27
2023-01-13T22:56:40.470Z,22.02
2023-01-13T22:59:43.014Z,21.70
2023-01-13T23:02:45.438Z,21.08
2023-01-13T23:05:48.419Z,22.10
2023-01-13T23:08:51.569Z,21.85
2023-01-13T23:11:54.235Z,23.97
2023-01-13T23:14:56.698Z,25.48
2023-01-13T23:17:59.279Z,27.13
2023-01-13T23:21:10.111Z,25.17
2023-01-13T23:24:12.768Z,23.47
2023-01-13T23:27:15.953Z,23.30
2023-01-13T23:30:19.007Z,23.15
2023-01-13T23:33:21.809Z,23.90
2023-01-13T23:36:26.205Z,22.00
2023-01-13T23:39:28.849Z,23.00
2023-01-13T23:42:31.573Z,21.27
2023-01-13T23:45:34.473Z,21.63
2023-01-13T23:48:37.391Z,20.43
2023-01-13T23:51:39.926Z,21.83
2023-01-13T23:54:42.340Z,21.13
2023-01-13T23:57:44.657Z,21.95
